createdAt,value
2023-05-24T00:02:14.201Z,99648.38
2023-05-24T00:04:42.283Z,99646.66
2023-05-24T00:07:09.173Z,99632.84
2023-05-24T00:09:35.908Z,99639.75
2023-05-24T00:12:03.307Z,99635.41
2023-05-24T00:14:30.347Z,99624.22
2023-05-24T00:16:57.005Z,99625.94
2023-05-24T00:19:24.074Z,99604.38
2023-05-24T00:21:50.821Z,99610.41
2023-05-24T00:24:17.563Z,99613.00
2023-05-24T00:26:44.961Z,99593.16
2023-05-24T00:29:12.169Z,99582.81
2023-05-24T00:31:39.068Z,99573.31
2023-05-24T00:34:06.410Z,99569.88
2023-05-24T00:36:33.287Z,99562.13
2023-05-24T00:39:00.236Z,99537.09
2023-05-24T00:41:26.974Z,99536.25
2023-05-24T00:43:53.602Z,99519.84
2023-05-24T00:46:32.126Z,99518.97
2023-05-24T00:49:00.466Z,99529.28
2023-05-24T00:51:28.061Z,99531.03
2023-05-24T00:53:55.553Z,99537.91
2023-05-24T00:56:23.068Z,99542.22
2023-05-24T00:58:54.589Z,99543.09
2023-05-24T01:01:21.675Z,99526.69
2023-05-24T01:03:48.633Z,99512.03
2023-05-24T01:06:16.308Z,99524.09
2023-05-24T01:09:25.685Z,99531.91
2023-05-24T01:12:30.501Z,99538.75
2023-05-24T01:15:19.150Z,99537.91
2023-05-24T01:18:05.569Z,99528.41
2023-05-24T01:20:34.054Z,99544.81
2023-05-24T01:23:15.282Z,99554.28
2023-05-24T01:26:08.434Z,99570.66
2023-05-24T01:28:36.103Z,99584.50
2023-05-24T01:31:04.104Z,99592.28
2023-05-24T01:33:33.753Z,99590.56
2023-05-24T01:36:00.513Z,99582.75
2023-05-24T01:38:27.156Z,99580.16
2023-05-24T01:41:04.802Z,99569.81
2023-05-24T01:43:41.356Z,99561.22
2023-05-24T01:46:33.444Z,99547.41
2023-05-24T01:49:18.035Z,99556.00
2023-05-24T01:51:51.598Z,99554.28
2023-05-24T01:54:23.403Z,99562.06
2023-05-24T01:56:52.973Z,99569.84
2023-05-24T01:59:22.556Z,99569.84
2023-05-24T02:01:49.789Z,99577.63
2023-05-24T02:04:17.612Z,99580.19
2023-05-24T02:06:44.198Z,99574.16
2023-05-24T02:09:10.776Z,99568.09
2023-05-24T02:11:37.391Z,99561.22
2023-05-24T02:14:03.982Z,99550.00
2023-05-24T02:16:30.849Z,99545.69
2023-05-24T02:18:58.062Z,99551.72
2023-05-24T02:21:25.895Z,99550.84
2023-05-24T02:23:52.577Z,99552.56
2023-05-24T02:26:19.971Z,99559.47
2023-05-24T02:28:48.946Z,99553.44
2023-05-24T02:31:15.579Z,99554.31
2023-05-24T02:33:42.247Z,99544.81
2023-05-24T02:36:09.012Z,99550.00
2023-05-24T02:38:37.199Z,99540.53
2023-05-24T02:41:04.054Z,99537.94
2023-05-24T02:43:30.745Z,99539.66
2023-05-24T02:45:57.323Z,99534.47
2023-05-24T02:48:24.025Z,99528.47
2023-05-24T02:50:51.371Z,99521.50
2023-05-24T02:53:17.918Z,99526.72
2023-05-24T02:55:46.747Z,99521.53
2023-05-24T02:58:13.662Z,99521.53
2023-05-24T03:00:40.460Z,99518.06
2023-05-24T03:03:07.213Z,99521.53
2023-05-24T03:05:33.836Z,99512.03
2023-05-24T03:08:00.396Z,99521.50
2023-05-24T03:10:26.974Z,99512.88
2023-05-24T03:12:53.622Z,99513.78
2023-05-24T03:15:20.256Z,99507.72
2023-05-24T03:17:46.976Z,99506.84
2023-05-24T03:20:13.606Z,99506.00
2023-05-24T03:22:40.212Z,99493.94
2023-05-24T03:25:08.766Z,99488.75
2023-05-24T03:27:36.475Z,99493.06
2023-05-24T03:30:03.479Z,99491.34
2023-05-24T03:32:30.099Z,99484.47
2023-05-24T03:34:57.666Z,99466.41
2023-05-24T03:37:24.272Z,99442.28
2023-05-24T03:39:50.891Z,99429.34
2023-05-24T03:42:17.531Z,99430.19
2023-05-24T03:44:44.269Z,99430.97
2023-05-24T03:47:10.930Z,99443.94
2023-05-24T03:49:37.553Z,99459.44
2023-05-24T03:52:04.286Z,99450.88
2023-05-24T03:54:31.013Z,99428.47
2023-05-24T03:56:57.596Z,99408.63
2023-05-24T03:59:24.399Z,99402.59
2023-05-24T04:01:51.037Z,99410.34
2023-05-24T04:04:17.741Z,99412.06
2023-05-24T04:06:44.393Z,99422.41
2023-05-24T04:09:10.965Z,99400.91
2023-05-24T04:11:37.573Z,99409.50
2023-05-24T04:14:04.155Z,99401.78
2023-05-24T04:16:34.155Z,99381.06
2023-05-24T04:19:03.962Z,99394.00
2023-05-24T04:21:32.198Z,99387.13
2023-05-24T04:24:02.202Z,99390.56
2023-05-24T04:26:29.849Z,99387.09
2023-05-24T04:28:57.452Z,99381.97
2023-05-24T04:31:24.135Z,99381.94
2023-05-24T04:33:50.729Z,99383.69
2023-05-24T04:36:17.793Z,99383.63
2023-05-24T04:38:45.829Z,99397.47
2023-05-24T04:41:13.552Z,99387.97
2023-05-24T04:43:40.737Z,99382.78
2023-05-24T04:46:09.156Z,99382.78
2023-05-24T04:48:36.226Z,99394.84
2023-05-24T04:51:02.949Z,99407.78
2023-05-24T04:53:29.609Z,99413.84
2023-05-24T04:55:56.289Z,99406.09
2023-05-24T04:58:22.851Z,99399.16
2023-05-24T05:00:49.465Z,99394.88
2023-05-24T05:03:16.405Z,99398.31
2023-05-24T05:05:43.157Z,99414.66
2023-05-24T05:08:09.847Z,99427.56
2023-05-24T05:10:36.809Z,99441.41
2023-05-24T05:13:03.481Z,99430.19
2023-05-24T05:15:30.773Z,99427.63
2023-05-24T05:17:57.415Z,99410.38
2023-05-24T05:20:24.790Z,99399.19
2023-05-24T05:22:51.402Z,99397.47
2023-05-24T05:25:18.210Z,99397.44
2023-05-24T05:27:44.765Z,99419.84
2023-05-24T05:30:11.929Z,99440.53
2023-05-24T05:32:38.639Z,99442.28
2023-05-24T05:35:05.936Z,99430.19
2023-05-24T05:37:32.630Z,99429.34
2023-05-24T05:39:59.428Z,99430.19
2023-05-24T05:42:26.143Z,99413.81
2023-05-24T05:44:52.856Z,99413.84
2023-05-24T05:47:19.549Z,99398.34
2023-05-24T05:49:46.178Z,99399.16
2023-05-24T05:52:12.841Z,99401.78
2023-05-24T05:54:39.490Z,99398.31
2023-05-24T05:57:08.237Z,99404.38
2023-05-24T05:59:36.313Z,99394.00
2023-05-24T06:02:04.150Z,99386.28
2023-05-24T06:04:31.766Z,99379.38
2023-05-24T06:06:58.411Z,99412.13
2023-05-24T06:09:25.119Z,99425.88
2023-05-24T06:11:51.782Z,99438.81
2023-05-24T06:14:18.544Z,99472.47
2023-05-24T06:16:46.100Z,99467.25
2023-05-24T06:19:13.643Z,99481.91
2023-05-24T06:21:47.183Z,99501.72
2023-05-24T06:24:21.447Z,99490.53
2023-05-24T06:26:48.720Z,99472.47
2023-05-24T06:29:15.409Z,99499.16
2023-05-24T06:31:43.521Z,99480.22
2023-05-24T06:34:10.428Z,99495.69
2023-05-24T06:36:41.398Z,99524.16
2023-05-24T06:39:11.106Z,99496.59
2023-05-24T06:41:39.055Z,99475.91
2023-05-24T06:44:05.835Z,99483.66
2023-05-24T06:46:33.091Z,99504.31
2023-05-24T06:48:59.828Z,99513.81
2023-05-24T06:51:26.633Z,99490.56
2023-05-24T06:53:53.711Z,99477.63
2023-05-24T06:56:20.414Z,99478.50
2023-05-24T06:58:47.593Z,99486.22
2023-05-24T07:01:14.645Z,99494.81
2023-05-24T07:03:41.470Z,99512.94
2023-05-24T07:06:10.086Z,99536.22
2023-05-24T07:08:36.864Z,99537.13
2023-05-24T07:11:04.125Z,99525.03
2023-05-24T07:13:30.934Z,99515.56
2023-05-24T07:15:57.601Z,99482.78
2023-05-24T07:18:24.168Z,99466.41
2023-05-24T07:20:50.875Z,99445.72
2023-05-24T07:23:17.701Z,99446.56
2023-05-24T07:25:44.272Z,99441.41
2023-05-24T07:28:11.319Z,99459.47
2023-05-24T07:30:39.400Z,99459.38
2023-05-24T07:33:06.646Z,99480.16
2023-05-24T07:35:33.344Z,99481.00
2023-05-24T07:37:59.967Z,99483.56
2023-05-24T07:40:26.694Z,99517.16
2023-05-24T07:42:53.313Z,99568.03
2023-05-24T07:45:20.568Z,99605.16
2023-05-24T07:47:47.241Z,99632.81
2023-05-24T07:50:13.873Z,99663.94
2023-05-24T07:52:40.557Z,99659.59
2023-05-24T07:55:07.997Z,99656.19
2023-05-24T07:57:34.547Z,99643.22
2023-05-24T08:00:07.452Z,99644.06
2023-05-24T08:02:34.930Z,99626.78
2023-05-24T08:05:01.695Z,99642.31
2023-05-24T08:07:28.863Z,99652.66
2023-05-24T08:09:55.668Z,99675.97
2023-05-24T08:12:22.689Z,99690.59
2023-05-24T08:14:49.366Z,99713.00
2023-05-24T08:17:15.924Z,99735.56
2023-05-24T08:19:42.502Z,99725.19
2023-05-24T08:22:10.215Z,99746.78
2023-05-24T08:24:36.898Z,99729.50
2023-05-24T08:27:04.506Z,99738.16
2023-05-24T08:29:31.512Z,99743.31
2023-05-24T08:31:58.562Z,99731.22
2023-05-24T08:34:25.203Z,99748.44
2023-05-24T08:36:51.805Z,99740.72
2023-05-24T08:39:18.357Z,99753.59
2023-05-24T08:41:51.555Z,99781.34
2023-05-24T08:44:25.900Z,99757.13
2023-05-24T08:46:54.961Z,99770.91
2023-05-24T08:49:21.751Z,99780.44
2023-05-24T08:51:49.884Z,99794.25
2023-05-24T08:54:16.717Z,99789.91
2023-05-24T08:56:43.685Z,99789.06
2023-05-24T08:59:11.559Z,99778.72
2023-05-24T09:01:41.630Z,99768.34
2023-05-24T09:04:09.077Z,99772.66
2023-05-24T09:06:37.094Z,99764.84
2023-05-24T09:09:04.720Z,99764.91
2023-05-24T09:11:32.549Z,99760.59
2023-05-24T09:14:00.855Z,99773.47
2023-05-24T09:16:28.212Z,99770.88
2023-05-24T09:18:54.833Z,99776.97
2023-05-24T09:21:22.333Z,99778.69
2023-05-24T09:23:49.477Z,99788.97
2023-05-24T09:26:16.143Z,99781.22
2023-05-24T09:28:43.853Z,99789.03
2023-05-24T09:31:10.689Z,99795.06
2023-05-24T09:33:39.370Z,99785.59
2023-05-24T09:36:07.194Z,99776.09
2023-05-24T09:38:36.365Z,99783.00
2023-05-24T09:41:05.702Z,99769.22
2023-05-24T09:43:34.755Z,99779.53
2023-05-24T09:46:04.952Z,99789.84
2023-05-24T09:48:32.084Z,99798.56
2023-05-24T09:51:06.408Z,99786.47
2023-05-24T09:53:34.959Z,99785.53
2023-05-24T09:56:04.264Z,99804.56
2023-05-24T09:58:34.449Z,99821.84
2023-05-24T10:01:08.728Z,99822.69
2023-05-24T10:03:37.867Z,99820.00
2023-05-24T10:06:07.820Z,99840.63
2023-05-24T10:08:36.197Z,99845.84
2023-05-24T10:11:06.921Z,99849.44
2023-05-24T10:13:36.712Z,99839.94
2023-05-24T10:16:03.936Z,99838.06
2023-05-24T10:18:30.633Z,99839.06
2023-05-24T10:20:58.363Z,99845.84
2023-05-24T10:23:29.437Z,99845.00
2023-05-24T10:26:14.530Z,99853.50
2023-05-24T10:28:54.722Z,99857.09
2023-05-24T10:31:28.317Z,99860.63
2023-05-24T10:34:06.619Z,99849.28
2023-05-24T10:36:35.242Z,99864.75
2023-05-24T10:39:02.280Z,99861.97
2023-05-24T10:41:29.254Z,99863.72
2023-05-24T10:44:09.414Z,99859.25
2023-05-24T10:46:36.770Z,99855.91
2023-05-24T10:49:06.072Z,99858.75
2023-05-24T10:51:38.474Z,99850.03
2023-05-24T10:54:13.793Z,99852.56
2023-05-24T10:56:43.215Z,99849.09
2023-05-24T10:59:09.881Z,99859.41
2023-05-24T11:01:36.800Z,99850.91
2023-05-24T11:04:10.191Z,99844.69
2023-05-24T11:06:49.918Z,99848.13
2023-05-24T11:09:22.457Z,99847.34
2023-05-24T11:11:51.089Z,99854.34
2023-05-24T11:14:24.546Z,99858.75
2023-05-24T11:16:51.953Z,99854.38
2023-05-24T11:19:31.348Z,99856.75
2023-05-24T11:21:59.059Z,99867.09
2023-05-24T11:24:27.064Z,99870.56
2023-05-24T11:26:54.148Z,99864.59
2023-05-24T11:29:22.944Z,99866.91
2023-05-24T11:32:04.624Z,99866.97
2023-05-24T11:34:32.754Z,99868.66
2023-05-24T11:37:00.559Z,99865.47
2023-05-24T11:39:36.758Z,99856.69
2023-05-24T11:42:07.738Z,99861.13
2023-05-24T11:44:38.016Z,99849.94
2023-05-24T11:47:07.315Z,99849.88
2023-05-24T11:49:34.745Z,99855.81
2023-05-24T11:52:02.650Z,99853.22
2023-05-24T11:54:31.855Z,99850.50
2023-05-24T11:56:58.544Z,99851.66
2023-05-24T11:59:26.979Z,99843.91
2023-05-24T12:02:04.568Z,99839.38
2023-05-24T12:04:32.623Z,99844.44
2023-05-24T12:06:59.815Z,99844.53
2023-05-24T12:09:27.102Z,99834.78
2023-05-24T12:11:54.700Z,99840.75
2023-05-24T12:14:27.744Z,99839.22
2023-05-24T12:16:56.569Z,99839.09
2023-05-24T12:19:33.935Z,99837.28
2023-05-24T12:22:05.222Z,99843.41
2023-05-24T12:24:32.490Z,99846.16
2023-05-24T12:27:09.790Z,99837.69
2023-05-24T12:29:38.843Z,99829.81
2023-05-24T12:32:06.711Z,99829.16
2023-05-24T12:34:33.371Z,99824.84
2023-05-24T12:37:03.116Z,99825.66
2023-05-24T12:39:36.790Z,99819.75
2023-05-24T12:42:04.693Z,99826.72
2023-05-24T12:44:36.735Z,99805.94
2023-05-24T12:47:05.287Z,99800.59
2023-05-24T12:49:32.334Z,99805.06
2023-05-24T12:51:59.992Z,99803.16
2023-05-24T12:54:28.439Z,99805.81
2023-05-24T12:56:57.463Z,99804.91
2023-05-24T12:59:26.541Z,99795.41
2023-05-24T13:01:53.626Z,99801.13
2023-05-24T13:04:21.966Z,99799.38
2023-05-24T13:06:49.330Z,99800.28
2023-05-24T13:09:19.118Z,99800.97
2023-05-24T13:11:47.204Z,99807.19
2023-05-24T13:14:15.574Z,99807.78
2023-05-24T13:16:42.460Z,99807.03
2023-05-24T13:19:09.240Z,99789.03
2023-05-24T13:21:35.926Z,99797.66
2023-05-24T13:24:02.725Z,99784.78
2023-05-24T13:26:30.671Z,99789.97
2023-05-24T13:31:28.450Z,99779.03
2023-05-24T13:33:55.450Z,99780.69
2023-05-24T13:36:22.113Z,99770.44
2023-05-24T13:38:56.473Z,99757.28
2023-05-24T13:41:29.142Z,99764.94
2023-05-24T13:43:55.874Z,99758.09
2023-05-24T13:46:23.238Z,99753.72
2023-05-24T13:48:49.860Z,99742.34
2023-05-24T13:51:18.721Z,99734.06
2023-05-24T13:53:45.353Z,99721.09
2023-05-24T13:56:11.926Z,99713.34
2023-05-24T13:58:38.543Z,99712.38
2023-05-24T14:01:05.177Z,99701.91
2023-05-24T14:03:31.724Z,99705.38
2023-05-24T14:05:58.491Z,99695.84
2023-05-24T14:08:25.894Z,99683.91
2023-05-24T14:10:53.747Z,99652.72
2023-05-24T14:14:02.489Z,99662.94
2023-05-24T14:16:08.787Z,99668.78
2023-05-24T14:18:36.525Z,99672.31
2023-05-24T14:21:03.468Z,99662.88
2023-05-24T14:23:32.042Z,99681.38
2023-05-24T14:26:00.233Z,99690.00
2023-05-24T14:28:27.013Z,99688.56
2023-05-24T14:30:53.599Z,99675.66
2023-05-24T14:33:20.387Z,99688.13
2023-05-24T14:35:47.226Z,99690.69
2023-05-24T14:38:13.902Z,99690.50
2023-05-24T14:40:40.935Z,99701.00
2023-05-24T14:43:10.535Z,99705.25
2023-05-24T14:45:38.683Z,99693.84
2023-05-24T14:48:05.876Z,99704.31
2023-05-24T14:50:32.991Z,99692.53
2023-05-24T14:53:01.245Z,99692.31
2023-05-24T14:55:27.842Z,99689.44
2023-05-24T14:57:54.607Z,99693.94
2023-05-24T15:00:23.272Z,99691.03
2023-05-24T15:02:51.204Z,99687.31
2023-05-24T15:05:17.866Z,99679.31
2023-05-24T15:07:44.438Z,99682.06
2023-05-24T15:10:11.445Z,99674.41
2023-05-24T15:12:38.173Z,99676.84
2023-05-24T15:15:06.856Z,99678.41
2023-05-24T15:17:34.017Z,99671.88
2023-05-24T15:20:00.771Z,99664.59
2023-05-24T15:22:27.672Z,99666.00
2023-05-24T15:24:54.241Z,99673.09
2023-05-24T15:27:20.846Z,99672.75
2023-05-24T15:29:47.573Z,99678.81
2023-05-24T15:32:14.248Z,99666.22
2023-05-24T15:34:41.265Z,99682.66
2023-05-24T15:37:07.941Z,99683.16
2023-05-24T15:39:34.558Z,99689.63
2023-05-24T15:42:01.099Z,99680.19
2023-05-24T15:44:28.012Z,99685.88
2023-05-24T15:46:54.694Z,99683.28
2023-05-24T15:49:23.244Z,99669.16
2023-05-24T15:52:03.898Z,99662.94
2023-05-24T15:54:32.094Z,99661.22
2023-05-24T15:57:00.637Z,99655.69
2023-05-24T15:59:27.976Z,99648.28
2023-05-24T16:01:55.090Z,99650.56
2023-05-24T16:04:21.879Z,99635.06
2023-05-24T16:06:49.311Z,99636.91
2023-05-24T16:09:16.115Z,99638.91
2023-05-24T16:11:42.772Z,99638.31
2023-05-24T16:14:10.377Z,99639.31
2023-05-24T16:16:38.098Z,99635.88
2023-05-24T16:19:04.882Z,99630.50
2023-05-24T16:21:32.922Z,99644.78
2023-05-24T16:24:01.841Z,99635.31
2023-05-24T16:26:30.807Z,99623.44
2023-05-24T16:28:57.749Z,99620.75
2023-05-24T16:31:24.640Z,99626.94
2023-05-24T16:33:51.410Z,99637.19
2023-05-24T16:36:18.012Z,99629.38
2023-05-24T16:38:44.610Z,99626.06
2023-05-24T16:41:11.217Z,99618.97
2023-05-24T16:43:38.083Z,99619.94
2023-05-24T16:46:04.751Z,99609.47
2023-05-24T16:48:31.671Z,99605.44
2023-05-24T16:50:58.872Z,99623.13
2023-05-24T16:53:27.228Z,99626.22
2023-05-24T16:55:55.839Z,99626.00
2023-05-24T16:58:28.685Z,99633.75
2023-05-24T17:00:55.384Z,99636.75
2023-05-24T17:03:27.747Z,99629.09
2023-05-24T17:05:55.516Z,99636.63
2023-05-24T17:08:22.510Z,99634.84
2023-05-24T17:10:55.846Z,99631.59
2023-05-24T17:13:29.380Z,99637.00
2023-05-24T17:15:57.298Z,99637.94
2023-05-24T17:18:28.441Z,99627.22
2023-05-24T17:21:00.380Z,99623.75
2023-05-24T17:23:28.428Z,99623.44
2023-05-24T17:25:57.924Z,99629.47
2023-05-24T17:28:28.605Z,99628.53
2023-05-24T17:30:56.376Z,99626.09
2023-05-24T17:33:24.001Z,99633.13
2023-05-24T17:35:51.197Z,99620.09
2023-05-24T17:38:18.505Z,99629.03
2023-05-24T17:40:49.010Z,99619.31
2023-05-24T17:43:15.683Z,99622.88
2023-05-24T17:45:42.977Z,99617.13
2023-05-24T17:48:10.290Z,99620.34
2023-05-24T17:50:36.901Z,99614.00
2023-05-24T17:53:03.607Z,99628.97
2023-05-24T17:55:30.216Z,99630.09
2023-05-24T17:57:57.830Z,99633.41
2023-05-24T18:00:24.502Z,99625.59
2023-05-24T18:02:51.210Z,99635.25
2023-05-24T18:05:17.961Z,99655.91
2023-05-24T18:07:44.572Z,99641.09
2023-05-24T18:10:11.471Z,99639.44
2023-05-24T18:12:38.756Z,99614.72
2023-05-24T18:15:06.452Z,99562.94
2023-05-24T18:17:33.093Z,99500.22
2023-05-24T18:19:59.787Z,99523.09
2023-05-24T18:22:26.914Z,99529.13
2023-05-24T18:24:53.442Z,99475.78
2023-05-24T18:27:20.592Z,99503.31
2023-05-24T18:29:47.192Z,99523.06
2023-05-24T18:32:14.465Z,99549.16
2023-05-24T18:34:41.388Z,99545.41
2023-05-24T18:37:08.195Z,99538.22
2023-05-24T18:39:35.957Z,99546.09
2023-05-24T18:42:02.792Z,99553.97
2023-05-24T18:44:29.516Z,99559.09
2023-05-24T18:46:58.097Z,99553.22
2023-05-24T18:49:24.887Z,99551.50
2023-05-24T18:51:51.691Z,99579.22
2023-05-24T18:54:18.341Z,99561.91
2023-05-24T18:56:47.122Z,99435.75
2023-05-24T18:59:14.376Z,99246.72
2023-05-24T19:01:41.716Z,99294.47
2023-05-24T19:04:08.468Z,99315.47
2023-05-24T19:06:35.024Z,99247.97
2023-05-24T19:09:02.475Z,99213.22
2023-05-24T19:11:29.085Z,99215.94
2023-05-24T19:13:55.968Z,99209.06
2023-05-24T19:16:22.741Z,99191.75
2023-05-24T19:18:50.484Z,99209.28
2023-05-24T19:21:18.102Z,99230.88
2023-05-24T19:23:44.705Z,99239.44
2023-05-24T19:26:11.506Z,99217.88
2023-05-24T19:28:41.369Z,99213.38
2023-05-24T19:31:07.965Z,99202.38
2023-05-24T19:33:35.943Z,99197.28
2023-05-24T19:36:05.549Z,99191.25
2023-05-24T19:38:32.330Z,99193.00
2023-05-24T19:40:59.032Z,99191.25
2023-05-24T19:43:25.888Z,99182.66
2023-05-24T19:45:54.353Z,99194.81
2023-05-24T19:48:21.840Z,99196.56
2023-05-24T19:50:49.285Z,99187.03
2023-05-24T19:53:16.329Z,99183.56
2023-05-24T19:55:43.958Z,99181.75
2023-05-24T19:58:10.890Z,99184.50
2023-05-24T20:00:37.474Z,99186.31
2023-05-24T20:03:04.698Z,99183.63
2023-05-24T20:05:31.616Z,99189.75
2023-05-24T20:07:58.251Z,99186.19
2023-05-24T20:10:25.060Z,99187.09
2023-05-24T20:12:51.778Z,99183.81
2023-05-24T20:15:18.775Z,99224.38
2023-05-24T20:17:45.802Z,99270.22
2023-05-24T20:20:12.668Z,99316.97
2023-05-24T20:22:39.413Z,99360.38
2023-05-24T20:25:06.737Z,99378.59
2023-05-24T20:27:33.350Z,99386.44
2023-05-24T20:30:00.024Z,99387.31
2023-05-24T20:32:26.635Z,99393.38
2023-05-24T20:34:53.482Z,99377.84
2023-05-24T20:37:22.081Z,99399.56
2023-05-24T20:39:48.815Z,99386.59
2023-05-24T20:42:15.989Z,99399.56
2023-05-24T20:44:42.841Z,99406.38
2023-05-24T20:47:09.738Z,99433.41
2023-05-24T20:49:36.488Z,99429.97
2023-05-24T20:52:04.501Z,99438.69
2023-05-24T20:54:31.374Z,99442.28
2023-05-24T20:56:59.629Z,99450.94
2023-05-24T20:59:26.273Z,99463.91
2023-05-24T21:01:53.582Z,99464.91
2023-05-24T21:04:20.296Z,99472.66
2023-05-24T21:06:46.937Z,99470.97
2023-05-24T21:09:13.530Z,99480.50
2023-05-24T21:11:40.347Z,99497.75
2023-05-24T21:14:06.955Z,99515.09
2023-05-24T21:16:33.578Z,99522.84
2023-05-24T21:19:00.865Z,99530.66
2023-05-24T21:21:27.501Z,99529.88
2023-05-24T21:23:55.668Z,99536.81
2023-05-24T21:26:22.854Z,99539.41
2023-05-24T21:28:49.736Z,99541.13
2023-05-24T21:31:17.262Z,99542.84
2023-05-24T21:33:44.171Z,99541.06
2023-05-24T21:36:11.031Z,99544.66
2023-05-24T21:38:37.635Z,99528.22
2023-05-24T21:41:05.369Z,99531.66
2023-05-24T21:43:32.112Z,99533.38
2023-05-24T21:45:58.818Z,99532.56
2023-05-24T21:48:26.108Z,99530.88
2023-05-24T21:50:52.725Z,99531.75
2023-05-24T21:53:19.284Z,99522.22
2023-05-24T21:55:46.047Z,99528.31
2023-05-24T21:58:12.684Z,99521.25
2023-05-24T22:00:39.327Z,99523.06
2023-05-24T22:03:06.057Z,99514.50
2023-05-24T22:05:32.764Z,99500.69
2023-05-24T22:07:59.324Z,99499.81
2023-05-24T22:10:26.413Z,99489.47
2023-05-24T22:12:53.017Z,99481.75
2023-05-24T22:15:19.780Z,99488.69
2023-05-24T22:17:46.316Z,99468.84
2023-05-24T22:20:13.037Z,99461.00
2023-05-24T22:22:48.453Z,99455.03
2023-05-24T22:25:19.338Z,99444.66
2023-05-24T22:27:49.962Z,99431.66
2023-05-24T22:30:17.607Z,99421.31
2023-05-24T22:32:44.389Z,99417.88
2023-05-24T22:35:11.059Z,99399.84
2023-05-24T22:37:37.855Z,99379.94
2023-05-24T22:40:05.512Z,99368.81
2023-05-24T22:42:32.053Z,99333.31
2023-05-24T22:44:59.366Z,99324.78
2023-05-24T22:47:26.792Z,99311.81
2023-05-24T22:49:54.150Z,99312.75
2023-05-24T22:52:21.064Z,99311.00
2023-05-24T22:54:47.699Z,99298.94
2023-05-24T22:57:14.343Z,99294.75
2023-05-24T22:59:42.762Z,99293.00
2023-05-24T23:02:09.374Z,99286.75
2023-05-24T23:04:37.837Z,99297.13
2023-05-24T23:07:04.993Z,99298.97
2023-05-24T23:09:35.364Z,99297.34
2023-05-24T23:12:07.461Z,99303.50
2023-05-24T23:14:38.435Z,99290.50
2023-05-24T23:17:06.463Z,99289.59
2023-05-24T23:19:33.094Z,99297.59
2023-05-24T23:21:59.691Z,99290.63
2023-05-24T23:24:26.899Z,99287.34
2023-05-24T23:26:55.810Z,99280.41
2023-05-24T23:29:22.575Z,99279.72
2023-05-24T23:31:49.288Z,99283.16
2023-05-24T23:34:15.996Z,99276.25
2023-05-24T23:36:42.622Z,99282.34
2023-05-24T23:39:10.979Z,99275.44
2023-05-24T23:41:37.596Z,99279.88
2023-05-24T23:44:04.166Z,99274.63
2023-05-24T23:46:31.335Z,99280.72
2023-05-24T23:48:58.013Z,99280.69
2023-05-24T23:51:24.635Z,99288.50
2023-05-24T23:53:51.252Z,99289.38
2023-05-24T23:56:17.894Z,99304.84
2023-05-24T23:58:44.658Z,99315.22
